Time;durP1;ratioP1;P1;durP2;ratioP2;P2;SDS_P1;SDS_P2;PMS_P1;PMS_P2;Temp;Humidity;BMP_temperature;BMP_pressure;BME280_temperature;BME280_humidity;BME280_pressure;Samples;Min_cycle;Max_cycle;Signal;HPM_P1;HPM_P2
2023/04/07 00:01:51;;;;;;;29.88;5.95;;;13.00;65.00;;;;;;5043432;28;20044;-58
2023/04/07 00:04:16;;;;;;;24.73;6.25;;;13.00;65.00;;;;;;5044579;28;20072;-58
2023/04/07 00:06:42;;;;;;;28.50;5.70;;;12.90;65.10;;;;;;5043431;28;20033;-58
2023/04/07 00:09:09;;;;;;;22.40;5.40;;;12.90;65.20;;;;;;5044663;28;20021;-58
2023/04/07 00:11:35;;;;;;;24.90;6.43;;;12.90;65.20;;;;;;5047531;28;20087;-58
2023/04/07 00:14:00;;;;;;;25.73;5.13;;;12.90;65.30;;;;;;5049048;28;20033;-58
2023/04/07 00:16:26;;;;;;;28.83;5.55;;;12.90;65.30;;;;;;5047468;28;20133;-58
2023/04/07 00:18:52;;;;;;;18.35;5.18;;;12.90;65.20;;;;;;5047433;28;20045;-58
2023/04/07 00:21:17;;;;;;;13.73;4.25;;;12.90;65.20;;;;;;5048737;28;20040;-58
2023/04/07 00:23:43;;;;;;;18.42;5.72;;;12.90;65.30;;;;;;5047727;28;20041;-57
2023/04/07 00:26:09;;;;;;;21.15;5.05;;;12.80;65.20;;;;;;5049094;28;20091;-58
2023/04/07 00:28:34;;;;;;;18.60;5.30;;;12.80;65.30;;;;;;5046944;28;20025;-58
2023/04/07 00:31:00;;;;;;;25.85;5.68;;;12.80;65.40;;;;;;5047050;28;20093;-58
2023/04/07 00:33:26;;;;;;;24.25;5.53;;;12.80;65.50;;;;;;5048560;28;20025;-58
2023/04/07 00:35:53;;;;;;;23.30;5.05;;;12.80;65.50;;;;;;5048418;28;20030;-58
2023/04/07 00:38:18;;;;;;;18.50;4.53;;;12.80;65.50;;;;;;5030826;28;20022;-58
2023/04/07 00:40:44;;;;;;;17.95;4.75;;;12.80;65.40;;;;;;5046982;28;20029;-58
2023/04/07 00:43:10;;;;;;;20.52;5.13;;;12.80;66.20;;;;;;5048399;28;20025;-58
2023/04/07 00:45:35;;;;;;;23.60;5.25;;;12.80;65.50;;;;;;5047043;28;20029;-58
2023/04/07 00:48:01;;;;;;;19.77;5.25;;;12.80;65.50;;;;;;5048157;28;20037;-58
2023/04/07 00:50:26;;;;;;;21.70;4.85;;;12.80;65.50;;;;;;5047121;28;20033;-58
2023/04/07 00:52:53;;;;;;;22.42;4.50;;;12.70;65.70;;;;;;5047031;28;20036;-58
2023/04/07 00:55:19;;;;;;;13.23;4.30;;;12.70;65.70;;;;;;5046873;28;20037;-57
2023/04/07 00:57:45;;;;;;;25.35;5.05;;;12.70;65.70;;;;;;5046597;28;20049;-58
2023/04/07 01:00:11;;;;;;;18.10;4.82;;;12.70;65.70;;;;;;5046831;28;20121;-58
2023/04/07 01:02:52;;;;;;;19.95;4.30;;;12.70;65.80;;;;;;5047065;28;20070;-58
2023/04/07 01:05:22;;;;;;;13.30;4.70;;;12.70;65.80;;;;;;5048107;28;20030;-58
2023/04/07 01:07:57;;;;;;;18.10;4.65;;;12.70;65.70;;;;;;5046474;28;20048;-58
2023/04/07 01:10:31;;;;;;;14.37;4.30;;;12.70;65.80;;;;;;5046442;28;20025;-58
2023/04/07 01:13:05;;;;;;;18.88;4.72;;;12.60;65.80;;;;;;5046337;28;20033;-58
2023/04/07 01:15:30;;;;;;;21.35;3.92;;;12.60;65.80;;;;;;5046271;28;20038;-58
2023/04/07 01:18:10;;;;;;;17.73;4.43;;;12.60;65.90;;;;;;5046419;28;20540;-58
2023/04/07 01:20:36;;;;;;;23.33;4.90;;;12.60;65.90;;;;;;5028550;28;20060;-58
2023/04/07 01:23:04;;;;;;;19.88;4.78;;;12.60;65.90;;;;;;5046210;28;20045;-58
2023/04/07 01:25:48;;;;;;;15.63;4.43;;;12.60;65.90;;;;;;5046174;28;20028;-58
2023/04/07 01:28:29;;;;;;;17.02;4.00;;;12.60;66.00;;;;;;5047439;28;20083;-58
2023/04/07 01:30:55;;;;;;;12.13;4.05;;;12.60;66.00;;;;;;5045867;28;20061;-58
2023/04/07 01:33:20;;;;;;;13.60;4.18;;;12.60;66.00;;;;;;5045971;28;20024;-58
2023/04/07 01:35:47;;;;;;;14.45;3.92;;;12.50;66.10;;;;;;5045920;28;20049;-58
2023/04/07 01:38:12;;;;;;;12.88;3.90;;;12.50;66.00;;;;;;5045872;28;20038;-59
2023/04/07 01:40:38;;;;;;;18.70;3.60;;;12.50;66.20;;;;;;5045880;28;20030;-58
2023/04/07 01:43:03;;;;;;;9.40;3.35;;;12.50;66.10;;;;;;5045761;28;20030;-58
2023/04/07 01:45:29;;;;;;;12.38;4.43;;;12.50;66.20;;;;;;5029252;28;20033;-58
2023/04/07 01:47:55;;;;;;;18.63;4.95;;;12.50;66.40;;;;;;5045612;28;20030;-58
2023/04/07 01:50:20;;;;;;;10.88;3.67;;;12.50;66.60;;;;;;5029383;28;20386;-58
2023/04/07 01:52:46;;;;;;;15.93;3.95;;;12.50;66.60;;;;;;5045560;28;20056;-58
2023/04/07 01:55:12;;;;;;;16.30;4.15;;;12.50;66.70;;;;;;5045530;28;20091;-58
2023/04/07 01:57:37;;;;;;;11.85;4.13;;;12.50;66.70;;;;;;5028877;28;20022;-58
2023/04/07 02:00:04;;;;;;;15.43;3.97;;;12.50;66.70;;;;;;5046713;28;20104;-58
2023/04/07 02:02:30;;;;;;;11.43;4.03;;;12.50;66.70;;;;;;5046868;28;20029;-58
2023/04/07 02:04:57;;;;;;;14.48;4.57;;;12.50;66.80;;;;;;5045653;28;20029;-58
2023/04/07 02:07:43;;;;;;;15.20;4.30;;;12.50;66.80;;;;;;5045286;28;20033;-58
2023/04/07 02:10:10;;;;;;;13.32;4.10;;;12.50;66.80;;;;;;5045111;28;20044;-58
2023/04/07 02:12:36;;;;;;;16.40;4.22;;;12.50;67.50;;;;;;5045227;28;20056;-58
2023/04/07 02:15:02;;;;;;;11.18;4.10;;;12.50;66.80;;;;;;5028744;28;20025;-58
2023/04/07 02:17:28;;;;;;;15.77;4.32;;;12.50;66.90;;;;;;5028585;28;20108;-58
2023/04/07 02:19:53;;;;;;;16.13;4.35;;;12.50;66.90;;;;;;5045175;28;20029;-58
2023/04/07 02:22:19;;;;;;;13.95;4.35;;;12.50;67.00;;;;;;5028346;28;20026;-58
2023/04/07 02:24:44;;;;;;;17.77;4.70;;;12.50;67.10;;;;;;5044989;28;20036;-58
2023/04/07 02:27:10;;;;;;;10.90;4.55;;;12.50;67.20;;;;;;5046357;28;20028;-58
2023/04/07 02:29:36;;;;;;;12.60;4.30;;;12.50;67.20;;;;;;5046264;28;20030;-58
2023/04/07 02:32:01;;;;;;;10.23;4.10;;;12.50;67.30;;;;;;5044513;28;20034;-58
2023/04/07 02:34:27;;;;;;;13.30;4.20;;;12.40;67.20;;;;;;5044702;28;20021;-58
2023/04/07 02:36:52;;;;;;;11.20;4.30;;;12.50;67.30;;;;;;5046402;28;20037;-58
2023/04/07 02:39:18;;;;;;;13.00;4.40;;;12.50;67.40;;;;;;5044841;28;20025;-58
2023/04/07 02:41:43;;;;;;;10.60;3.70;;;12.50;68.10;;;;;;5044804;28;20057;-59
2023/04/07 02:44:09;;;;;;;13.98;3.88;;;12.50;67.50;;;;;;5044705;28;20025;-58
2023/04/07 02:46:35;;;;;;;9.77;3.83;;;12.50;67.60;;;;;;5046062;28;20362;-58
2023/04/07 02:49:00;;;;;;;9.75;4.05;;;12.50;67.60;;;;;;5027964;28;20025;-58
2023/04/07 02:51:26;;;;;;;12.52;4.78;;;12.50;67.80;;;;;;5044177;28;20041;-58
2023/04/07 02:53:52;;;;;;;13.27;4.03;;;12.50;67.80;;;;;;5044521;28;20028;-58
2023/04/07 02:56:17;;;;;;;10.20;3.83;;;12.50;67.80;;;;;;5044654;28;20045;-57
2023/04/07 02:58:43;;;;;;;8.23;4.18;;;12.50;67.90;;;;;;5028452;28;20048;-58
2023/04/07 03:01:08;;;;;;;10.15;4.50;;;12.50;68.00;;;;;;5044974;28;20025;-58
2023/04/07 03:03:34;;;;;;;16.42;5.57;;;12.50;68.10;;;;;;5044602;28;20124;-58
2023/04/07 03:05:59;;;;;;;10.13;5.88;;;12.50;68.10;;;;;;5044749;28;20034;-58
2023/04/07 03:08:26;;;;;;;14.43;6.07;;;12.50;68.20;;;;;;5045895;28;20025;-58
2023/04/07 03:10:51;;;;;;;12.50;6.00;;;12.50;68.10;;;;;;5044242;28;20111;-58
2023/04/07 03:13:18;;;;;;;15.30;4.85;;;12.50;68.10;;;;;;5045584;28;20029;-58
2023/04/07 03:15:44;;;;;;;11.25;5.28;;;12.50;68.00;;;;;;5044046;28;20023;-58
2023/04/07 03:18:10;;;;;;;10.23;5.22;;;12.40;67.80;;;;;;5044031;28;20444;-58
2023/04/07 03:20:36;;;;;;;8.93;4.72;;;12.50;68.00;;;;;;5044018;28;20029;-58
2023/04/07 03:23:02;;;;;;;8.80;4.95;;;12.50;67.80;;;;;;5045370;28;20063;-58
2023/04/07 03:25:27;;;;;;;12.73;5.57;;;12.40;67.80;;;;;;5043817;28;20057;-58
2023/04/07 03:27:53;;;;;;;8.35;4.70;;;12.50;67.80;;;;;;5043689;28;20034;-58
2023/04/07 03:30:19;;;;;;;11.60;4.85;;;12.40;67.80;;;;;;5044910;28;20037;-58
2023/04/07 03:32:44;;;;;;;12.88;5.40;;;12.40;67.90;;;;;;5043648;28;20108;-58
2023/04/07 03:35:10;;;;;;;25.38;7.10;;;12.40;67.90;;;;;;5045194;28;20033;-58
2023/04/07 03:37:35;;;;;;;19.60;7.60;;;12.40;67.90;;;;;;5027080;28;20386;-58
2023/04/07 03:40:01;;;;;;;19.95;8.45;;;12.40;67.90;;;;;;5044951;28;20043;-58
2023/04/07 03:42:27;;;;;;;31.95;12.38;;;12.40;67.90;;;;;;5044943;28;20025;-58
2023/04/07 03:44:52;;;;;;;24.40;9.25;;;12.40;67.90;;;;;;5043019;28;20037;-58
2023/04/07 03:47:18;;;;;;;20.50;8.30;;;12.40;67.90;;;;;;5043487;28;20029;-58
2023/04/07 03:49:43;;;;;;;29.25;8.15;;;12.40;68.00;;;;;;5043675;28;20026;-58
2023/04/07 03:52:09;;;;;;;23.55;7.70;;;12.30;67.90;;;;;;5043288;28;20025;-58
2023/04/07 03:54:35;;;;;;;23.50;7.15;;;12.30;68.60;;;;;;5044865;28;20087;-58
2023/04/07 03:57:01;;;;;;;30.13;8.30;;;12.30;67.90;;;;;;5043461;28;20021;-58
2023/04/07 03:59:27;;;;;;;28.98;7.47;;;12.30;67.90;;;;;;5043295;28;20045;-58
2023/04/07 04:01:52;;;;;;;21.50;6.90;;;12.30;67.90;;;;;;5044869;28;20037;-58
2023/04/07 04:04:18;;;;;;;24.35;7.18;;;12.30;67.80;;;;;;5026935;28;20037;-58
2023/04/07 04:06:44;;;;;;;23.55;8.25;;;12.40;68.00;;;;;;5044893;28;20049;-58
2023/04/07 04:09:09;;;;;;;23.65;7.72;;;12.30;68.00;;;;;;5043351;28;20025;-58
2023/04/07 04:11:35;;;;;;;17.50;7.82;;;12.30;68.00;;;;;;5044705;28;20052;-58
2023/04/07 04:14:01;;;;;;;21.92;8.15;;;12.30;67.90;;;;;;5043419;28;20427;-58
2023/04/07 04:16:26;;;;;;;26.30;7.65;;;12.30;68.00;;;;;;5043516;28;20327;-58
2023/04/07 04:18:52;;;;;;;24.13;7.93;;;12.30;68.10;;;;;;5045519;28;20049;-58
2023/04/07 04:21:17;;;;;;;27.08;5.95;;;12.30;68.10;;;;;;5043416;28;20029;-58
2023/04/07 04:23:43;;;;;;;18.00;7.03;;;12.20;68.00;;;;;;5043356;28;20137;-58
2023/04/07 04:26:08;;;;;;;34.20;8.00;;;12.30;68.80;;;;;;5044787;28;20032;-58
2023/04/07 04:28:34;;;;;;;26.85;7.22;;;12.20;68.20;;;;;;5044605;28;20325;-58
2023/04/07 04:31:00;;;;;;;14.60;6.38;;;12.20;68.60;;;;;;5042735;28;20057;-58
2023/04/07 04:33:25;;;;;;;15.38;6.63;;;12.20;69.10;;;;;;5044623;28;20022;-58
2023/04/07 04:35:51;;;;;;;18.15;6.30;;;12.20;69.40;;;;;;5043292;28;20098;-58
2023/04/07 04:38:16;;;;;;;27.77;6.75;;;12.20;69.70;;;;;;5043124;28;20524;-58
2023/04/07 04:40:42;;;;;;;23.90;6.63;;;12.20;68.90;;;;;;5043115;28;20033;-58
2023/04/07 04:43:08;;;;;;;16.13;5.82;;;12.20;69.00;;;;;;5044534;28;20049;-58
2023/04/07 04:45:34;;;;;;;20.67;6.10;;;12.20;69.10;;;;;;5042958;28;20037;-58
2023/04/07 04:48:00;;;;;;;15.93;6.15;;;12.20;69.30;;;;;;5043108;28;20046;-58
2023/04/07 04:50:25;;;;;;;14.07;5.68;;;12.20;69.10;;;;;;5042923;28;20033;-58
2023/04/07 04:52:51;;;;;;;21.77;5.90;;;12.20;69.20;;;;;;5042644;28;20029;-58
2023/04/07 04:55:17;;;;;;;14.18;6.18;;;12.20;70.00;;;;;;5044663;28;20040;-58
2023/04/07 04:57:42;;;;;;;14.73;4.65;;;12.20;69.30;;;;;;5046805;28;20113;-58
2023/04/07 05:00:08;;;;;;;17.30;5.35;;;12.20;69.90;;;;;;5046757;28;20033;-58
2023/04/07 05:02:35;;;;;;;14.65;5.40;;;12.10;69.10;;;;;;5048067;28;20108;-58
2023/04/07 05:05:00;;;;;;;19.88;5.63;;;12.10;69.10;;;;;;5046826;28;20033;-58
2023/04/07 05:07:26;;;;;;;20.33;5.45;;;12.10;69.20;;;;;;5046564;28;20378;-58
2023/04/07 05:09:51;;;;;;;20.40;5.35;;;12.10;69.20;;;;;;5047872;28;20033;-58
2023/04/07 05:12:17;;;;;;;19.85;5.30;;;12.10;69.20;;;;;;5046865;28;20117;-58
2023/04/07 05:14:42;;;;;;;18.65;5.55;;;12.10;69.30;;;;;;5030231;28;20040;-58
2023/04/07 05:17:08;;;;;;;21.70;5.53;;;12.10;69.40;;;;;;5048126;28;20032;-58
2023/04/07 05:19:34;;;;;;;12.35;5.15;;;12.10;69.40;;;;;;5046472;28;20094;-58
2023/04/07 05:22:00;;;;;;;18.33;5.63;;;12.00;69.30;;;;;;5046169;28;20056;-58
2023/04/07 05:24:27;;;;;;;11.35;5.07;;;12.00;69.30;;;;;;5047797;28;20033;-58
2023/04/07 05:26:52;;;;;;;13.52;4.70;;;12.00;69.30;;;;;;5046150;28;20030;-58
2023/04/07 05:29:18;;;;;;;11.30;4.65;;;12.00;69.40;;;;;;5047272;28;20026;-58
2023/04/07 05:31:43;;;;;;;11.23;5.35;;;12.00;69.40;;;;;;5045866;28;20033;-58
2023/04/07 05:34:09;;;;;;;13.13;4.88;;;12.00;69.40;;;;;;5046040;28;20081;-58
2023/04/07 05:36:34;;;;;;;13.38;4.78;;;12.00;69.40;;;;;;5047528;28;20026;-58
2023/04/07 05:39:00;;;;;;;13.30;4.63;;;12.00;69.40;;;;;;5047562;28;20021;-58
2023/04/07 05:41:26;;;;;;;12.13;5.10;;;12.00;69.40;;;;;;5047289;28;20076;-58
2023/04/07 05:43:51;;;;;;;12.93;4.53;;;12.00;69.40;;;;;;5047052;28;20496;-58
2023/04/07 05:46:17;;;;;;;14.02;4.70;;;12.00;69.40;;;;;;5045823;28;20170;-58
2023/04/07 05:48:43;;;;;;;16.75;4.82;;;12.00;69.40;;;;;;5045759;28;20040;-58
2023/04/07 05:51:08;;;;;;;17.15;4.70;;;11.90;69.40;;;;;;5045404;28;20034;-58
2023/04/07 05:53:34;;;;;;;17.00;4.30;;;11.90;69.50;;;;;;5045560;28;20030;-58
2023/04/07 05:55:59;;;;;;;13.80;4.53;;;11.90;70.10;;;;;;5045623;28;20112;-58
2023/04/07 05:58:25;;;;;;;7.15;4.10;;;11.90;69.50;;;;;;5046920;28;20026;-58
2023/04/07 06:00:50;;;;;;;10.48;4.90;;;11.90;69.50;;;;;;5046945;28;20040;-58
2023/04/07 06:03:16;;;;;;;11.70;4.45;;;11.90;69.50;;;;;;5046927;28;20033;-58
2023/04/07 06:05:45;;;;;;;12.27;4.13;;;11.90;69.60;;;;;;5045748;28;20093;-58
2023/04/07 06:08:10;;;;;;;13.02;4.30;;;11.80;69.50;;;;;;5028135;28;20140;-58
2023/04/07 06:10:36;;;;;;;13.18;4.03;;;11.80;69.50;;;;;;5045319;28;20033;-58
2023/04/07 06:13:01;;;;;;;10.32;4.18;;;11.80;69.60;;;;;;5045120;28;20052;-58
2023/04/07 06:15:27;;;;;;;7.78;3.67;;;11.80;70.30;;;;;;5046636;28;20040;-58
2023/04/07 06:17:52;;;;;;;11.20;3.72;;;11.80;69.70;;;;;;5045481;28;20025;-58
2023/04/07 06:20:20;;;;;;;8.50;3.55;;;11.80;69.70;;;;;;5046612;28;20339;-58
2023/04/07 06:22:46;;;;;;;9.55;4.10;;;11.80;69.60;;;;;;5046662;28;20025;-58
2023/04/07 06:25:11;;;;;;;8.80;3.58;;;11.80;69.70;;;;;;5045271;28;20038;-58
2023/04/07 06:27:37;;;;;;;11.63;4.10;;;11.80;69.80;;;;;;5045088;28;20033;-58
2023/04/07 06:30:03;;;;;;;10.02;3.90;;;11.80;69.70;;;;;;5044931;28;20453;-58
2023/04/07 06:32:28;;;;;;;8.85;3.40;;;11.80;69.90;;;;;;5044761;28;20018;-58
2023/04/07 06:34:55;;;;;;;9.80;3.70;;;11.80;69.80;;;;;;5044801;28;20021;-58
2023/04/07 06:37:23;;;;;;;9.23;3.60;;;11.80;69.70;;;;;;5046236;28;20018;-58
2023/04/07 06:39:49;;;;;;;7.63;3.13;;;11.80;69.80;;;;;;5044794;28;20025;-58
2023/04/07 06:42:14;;;;;;;10.30;3.58;;;11.80;69.80;;;;;;5044823;28;20036;-58
2023/04/07 06:44:40;;;;;;;7.63;3.22;;;11.80;69.70;;;;;;5044680;28;20072;-58
2023/04/07 06:47:06;;;;;;;8.13;3.78;;;11.80;69.80;;;;;;5046127;28;20026;-58
2023/04/07 06:49:31;;;;;;;9.57;3.45;;;11.80;69.70;;;;;;5045682;28;20128;-58
2023/04/07 06:51:57;;;;;;;5.55;3.25;;;11.80;69.70;;;;;;5045716;28;20045;-58
2023/04/07 06:54:22;;;;;;;5.13;3.40;;;11.80;69.70;;;;;;5044517;28;20028;-58
2023/04/07 06:56:48;;;;;;;8.02;3.60;;;11.80;69.70;;;;;;5044706;28;20450;-58
2023/04/07 06:59:13;;;;;;;5.63;3.20;;;11.80;69.70;;;;;;5044458;28;20086;-58
2023/04/07 07:01:39;;;;;;;5.85;3.13;;;11.80;69.70;;;;;;5044485;28;20362;-58
2023/04/07 07:04:05;;;;;;;5.88;3.20;;;11.80;69.70;;;;;;5044269;28;20033;-58
2023/04/07 07:06:31;;;;;;;7.05;3.05;;;11.80;69.70;;;;;;5045775;28;20025;-58
2023/04/07 07:08:57;;;;;;;8.10;2.97;;;11.80;69.70;;;;;;5027762;28;20125;-58
2023/04/07 07:11:22;;;;;;;6.72;2.88;;;11.80;69.70;;;;;;5044100;28;20029;-58
2023/04/07 07:13:48;;;;;;;4.97;2.88;;;11.80;69.80;;;;;;5045532;28;20048;-58
2023/04/07 07:16:14;;;;;;;5.53;2.75;;;11.80;69.80;;;;;;5045502;28;20132;-58
2023/04/07 07:18:39;;;;;;;5.78;3.03;;;11.80;69.70;;;;;;5043221;28;20018;-58
2023/04/07 07:21:05;;;;;;;5.65;2.75;;;11.80;69.80;;;;;;5045307;28;20116;-58
2023/04/07 07:23:31;;;;;;;4.38;2.88;;;11.80;69.70;;;;;;5045214;28;20037;-58
2023/04/07 07:25:56;;;;;;;4.80;2.90;;;11.90;69.80;;;;;;5044009;28;20449;-58
2023/04/07 07:28:22;;;;;;;5.05;2.70;;;11.90;69.80;;;;;;5043848;28;20108;-58
2023/04/07 07:30:48;;;;;;;5.13;2.75;;;11.90;69.90;;;;;;5044068;28;20030;-58
2023/04/07 07:33:13;;;;;;;4.32;2.92;;;11.90;69.80;;;;;;5044692;28;20037;-58
2023/04/07 07:35:39;;;;;;;4.43;2.92;;;11.90;70.00;;;;;;5027347;28;20026;-58
2023/04/07 07:38:05;;;;;;;9.15;2.63;;;11.90;70.10;;;;;;5043728;28;20040;-58
2023/04/07 07:40:30;;;;;;;9.02;3.30;;;11.90;69.90;;;;;;5043664;28;20120;-58
2023/04/07 07:42:56;;;;;;;8.15;2.67;;;11.80;70.00;;;;;;5043736;28;20097;-58
2023/04/07 07:45:22;;;;;;;8.35;2.75;;;11.80;70.20;;;;;;5043625;28;20517;-58
2023/04/07 07:47:47;;;;;;;5.60;2.63;;;11.80;70.10;;;;;;5043342;28;20033;-58
2023/04/07 07:50:13;;;;;;;7.82;3.15;;;11.90;70.20;;;;;;5043331;28;20037;-58
2023/04/07 07:52:38;;;;;;;19.05;3.80;;;11.80;70.10;;;;;;5044659;28;20385;-58
2023/04/07 07:55:04;;;;;;;20.55;3.83;;;11.90;70.20;;;;;;5043582;28;20036;-58
2023/04/07 07:57:30;;;;;;;18.35;3.90;;;11.80;70.10;;;;;;5040330;28;20125;-57
2023/04/07 07:59:55;;;;;;;33.92;4.53;;;11.80;70.20;;;;;;5040965;28;20037;-58
2023/04/07 08:02:21;;;;;;;23.08;4.38;;;11.90;70.20;;;;;;5040729;28;20401;-58
2023/04/07 08:04:46;;;;;;;37.80;5.00;;;11.90;70.20;;;;;;5036671;28;20037;-58
2023/04/07 08:07:12;;;;;;;52.58;6.35;;;11.90;70.20;;;;;;5044267;28;20032;-59
2023/04/07 08:09:37;;;;;;;33.67;5.00;;;11.90;70.40;;;;;;5043667;28;20029;-58
2023/04/07 08:12:03;;;;;;;28.15;4.43;;;11.90;70.50;;;;;;5042301;28;20025;-58
2023/04/07 08:14:29;;;;;;;16.50;4.18;;;11.90;70.70;;;;;;5040978;28;20021;-58
2023/04/07 08:16:54;;;;;;;26.05;4.90;;;11.90;71.50;;;;;;5032197;28;20091;-58
2023/04/07 08:19:20;;;;;;;20.75;4.53;;;11.90;70.90;;;;;;5026212;28;20029;-58
2023/04/07 08:21:46;;;;;;;20.48;4.68;;;12.00;70.90;;;;;;5041753;28;20033;-58
2023/04/07 08:24:11;;;;;;;18.70;4.32;;;12.00;71.00;;;;;;5042811;28;20032;-58
2023/04/07 08:26:37;;;;;;;42.28;5.40;;;12.00;71.00;;;;;;5044801;28;20079;-58
2023/04/07 08:29:02;;;;;;;18.77;3.80;;;12.00;71.20;;;;;;5041309;28;20040;-58
2023/04/07 08:31:28;;;;;;;27.30;5.38;;;12.00;71.20;;;;;;5046699;28;20037;-58
2023/04/07 08:33:56;;;;;;;33.08;5.72;;;12.00;71.20;;;;;;5048282;28;20064;-58
2023/04/07 08:36:23;;;;;;;13.77;4.45;;;12.10;71.50;;;;;;5042669;28;20044;-58
2023/04/07 08:38:48;;;;;;;46.47;6.82;;;12.10;71.80;;;;;;5041788;28;20087;-58
2023/04/07 08:41:17;;;;;;;62.90;7.25;;;12.10;71.70;;;;;;5046566;28;20033;-58
2023/04/07 08:43:43;;;;;;;36.05;5.80;;;12.20;71.80;;;;;;5045633;28;20025;-58
2023/04/07 08:46:08;;;;;;;44.15;6.88;;;12.20;71.70;;;;;;5043916;28;20469;-59
2023/04/07 08:48:34;;;;;;;46.72;7.32;;;12.20;71.60;;;;;;5046629;28;20029;-58
2023/04/07 08:51:07;;;;;;;57.10;8.07;;;12.30;71.70;;;;;;5040861;28;20482;-59
2023/04/07 08:53:49;;;;;;;66.40;9.60;;;12.30;71.90;;;;;;5044212;28;20083;-58
2023/04/07 08:56:15;;;;;;;58.83;9.27;;;12.30;72.20;;;;;;5027909;28;20033;-58
2023/04/07 08:58:41;;;;;;;62.45;8.93;;;12.30;72.10;;;;;;5045484;28;20021;-58
2023/04/07 09:01:07;;;;;;;82.80;10.25;;;12.40;72.10;;;;;;5044168;28;20045;-58
2023/04/07 09:03:33;;;;;;;187.30;20.92;;;12.40;72.40;;;;;;5044636;28;20029;-58
2023/04/07 09:06:00;;;;;;;113.43;13.38;;;12.40;72.60;;;;;;5056882;28;20038;-58
2023/04/07 09:08:25;;;;;;;163.73;15.63;;;12.50;73.10;;;;;;5078936;28;20056;-58
2023/04/07 09:10:51;;;;;;;86.43;12.50;;;12.50;73.20;;;;;;5045157;28;20045;-58
2023/04/07 09:13:16;;;;;;;121.30;13.38;;;12.50;73.40;;;;;;5076396;28;20039;-58
2023/04/07 09:15:42;;;;;;;132.68;14.45;;;12.60;73.70;;;;;;5043920;28;20029;-58
2023/04/07 09:18:08;;;;;;;97.65;13.73;;;12.60;73.70;;;;;;5079054;28;20053;-59
2023/04/07 09:21:01;;;;;;;135.80;16.42;;;12.70;73.60;;;;;;5060945;28;20049;-58
2023/04/07 09:23:34;;;;;;;129.00;14.88;;;12.70;73.50;;;;;;5044430;28;20108;-58
2023/04/07 09:26:17;;;;;;;269.15;27.35;;;12.70;73.60;;;;;;5078098;28;20030;-58
2023/04/07 09:28:44;;;;;;;173.63;19.27;;;12.80;73.80;;;;;;5060828;28;20056;-58
2023/04/07 09:31:09;;;;;;;158.00;18.42;;;12.80;73.90;;;;;;5045680;28;20036;-58
2023/04/07 09:33:35;;;;;;;136.85;17.50;;;12.80;74.00;;;;;;5044669;28;20026;-58
2023/04/07 09:36:02;;;;;;;152.85;17.45;;;12.90;74.00;;;;;;5035829;28;20075;-58
2023/04/07 09:38:38;;;;;;;135.20;15.88;;;12.90;74.30;;;;;;5039595;28;20469;-58
2023/04/07 09:41:15;;;;;;;128.25;16.73;;;13.00;74.00;;;;;;5077785;28;20025;-58
2023/04/07 09:43:43;;;;;;;206.68;24.05;;;13.10;74.10;;;;;;5044142;28;20085;-58
2023/04/07 09:46:18;;;;;;;190.40;23.50;;;13.10;74.50;;;;;;5064015;28;20096;-58
2023/04/07 09:48:45;;;;;;;149.93;19.90;;;13.10;74.60;;;;;;5042146;28;20095;-58
2023/04/07 09:51:10;;;;;;;178.15;21.23;;;13.20;74.40;;;;;;5027147;28;20041;-58
2023/04/07 09:53:50;;;;;;;148.40;17.17;;;13.20;74.60;;;;;;5044250;28;20053;-58
2023/04/07 09:56:16;;;;;;;100.50;14.35;;;13.20;74.20;;;;;;5038650;28;20026;-58
2023/04/07 09:58:43;;;;;;;126.38;16.40;;;13.30;73.80;;;;;;5076870;28;20037;-59
2023/04/07 10:01:09;;;;;;;202.90;22.45;;;13.30;73.70;;;;;;5042184;28;20048;-58
2023/04/07 10:03:35;;;;;;;164.05;20.52;;;13.30;74.00;;;;;;5053231;28;20030;-58
2023/04/07 10:06:00;;;;;;;163.63;21.17;;;13.30;74.30;;;;;;5029550;28;20030;-58
2023/04/07 10:08:27;;;;;;;171.38;21.48;;;13.30;74.70;;;;;;5026375;28;20064;-58
2023/04/07 10:10:53;;;;;;;251.60;28.20;;;13.40;74.50;;;;;;5057483;28;20089;-59
2023/04/07 10:13:19;;;;;;;223.52;26.58;;;13.50;74.70;;;;;;5033651;28;20023;-58
2023/04/07 10:15:45;;;;;;;223.50;27.20;;;13.50;74.90;;;;;;5026697;28;20045;-58
2023/04/07 10:18:11;;;;;;;199.25;23.30;;;13.50;75.00;;;;;;5044390;28;20036;-58
2023/04/07 10:20:38;;;;;;;267.63;32.00;;;13.60;74.90;;;;;;5075773;28;20124;-58
2023/04/07 10:23:24;;;;;;;234.25;29.75;;;13.60;74.90;;;;;;5054849;28;20148;-59
2023/04/07 10:25:51;;;;;;;246.05;27.98;;;13.70;74.80;;;;;;5040956;28;20418;-58
2023/04/07 10:28:16;;;;;;;237.52;30.23;;;13.70;74.80;;;;;;5061796;28;20041;-58
2023/04/07 10:30:44;;;;;;;232.27;27.50;;;13.70;74.90;;;;;;5043614;28;20561;-58
2023/04/07 10:33:09;;;;;;;256.25;27.95;;;13.70;74.90;;;;;;5039415;28;20070;-58
2023/04/07 10:36:06;;;;;;;235.25;25.90;;;13.80;75.00;;;;;;5023252;28;20102;-58
2023/04/07 10:38:32;;;;;;;222.50;25.65;;;13.80;75.00;;;;;;5070913;28;20088;-59
2023/04/07 10:40:58;;;;;;;200.43;27.10;;;13.90;74.90;;;;;;5041122;28;20064;-59
2023/04/07 10:43:37;;;;;;;193.50;23.88;;;13.80;74.80;;;;;;5053816;28;20037;-59
2023/04/07 10:46:03;;;;;;;217.23;24.88;;;13.90;74.70;;;;;;5032232;28;20072;-58
2023/04/07 10:48:31;;;;;;;220.35;25.05;;;13.90;74.80;;;;;;5040504;28;20025;-58
2023/04/07 10:51:03;;;;;;;216.73;26.30;;;13.90;74.80;;;;;;5057655;28;20025;-58
2023/04/07 10:53:30;;;;;;;188.75;24.52;;;13.90;74.80;;;;;;5041636;28;20022;-59
2023/04/07 10:55:56;;;;;;;218.57;24.80;;;13.90;74.80;;;;;;5072052;28;20072;-58
2023/04/07 10:58:28;;;;;;;194.65;23.38;;;14.00;75.30;;;;;;5038062;28;20052;-58
2023/04/07 11:01:06;;;;;;;164.00;20.70;;;14.00;75.30;;;;;;5057694;28;20038;-58
2023/04/07 11:03:50;;;;;;;194.38;23.42;;;14.00;74.80;;;;;;5044858;28;20040;-58
2023/04/07 11:06:16;;;;;;;186.02;23.77;;;14.10;75.00;;;;;;5039911;28;20159;-59
2023/04/07 11:08:46;;;;;;;186.48;24.20;;;14.10;75.00;;;;;;5041915;28;20466;-56
2023/04/07 11:11:18;;;;;;;166.85;20.77;;;14.10;75.80;;;;;;5040948;28;20037;-56
2023/04/07 11:13:45;;;;;;;213.68;24.58;;;14.10;75.70;;;;;;5038248;28;20055;-57
2023/04/07 11:16:11;;;;;;;202.32;23.08;;;14.10;75.30;;;;;;5041978;28;20101;-56
2023/04/07 11:18:37;;;;;;;139.60;15.15;;;14.10;75.60;;;;;;5043323;28;20040;-56
2023/04/07 11:21:04;;;;;;;138.27;18.15;;;14.10;75.20;;;;;;5033946;28;20093;-56
2023/04/07 11:23:40;;;;;;;146.60;17.48;;;14.10;75.00;;;;;;5041596;28;20026;-56
2023/04/07 11:26:05;;;;;;;;;;;14.10;75.40;;;;;;5034275;28;20512;-57
2023/04/07 11:28:31;;;;;;;197.98;22.98;;;14.00;75.70;;;;;;5076840;28;19909;-56
2023/04/07 11:30:57;;;;;;;182.73;22.13;;;14.00;76.50;;;;;;5076018;28;20342;-57
2023/04/07 11:33:26;;;;;;;196.15;22.40;;;14.00;76.60;;;;;;5041894;28;20021;-56
2023/04/07 11:35:55;;;;;;;178.52;21.77;;;14.00;76.40;;;;;;5075397;28;20033;-56
2023/04/07 11:38:26;;;;;;;180.43;21.00;;;14.00;76.40;;;;;;5040380;28;20022;-56
2023/04/07 11:40:52;;;;;;;156.85;20.17;;;14.00;76.70;;;;;;5073888;28;20036;-57
2023/04/07 11:43:22;;;;;;;193.50;22.63;;;14.00;76.80;;;;;;5040290;28;20029;-57
2023/04/07 11:46:07;;;;;;;251.07;28.92;;;14.00;76.70;;;;;;5043566;28;20101;-57
2023/04/07 11:48:34;;;;;;;189.77;21.73;;;14.00;77.10;;;;;;5035901;28;20025;-57
2023/04/07 11:51:00;;;;;;;177.90;20.75;;;14.00;77.30;;;;;;5040217;28;20136;-57
2023/04/07 11:53:30;;;;;;;215.63;24.40;;;14.00;77.20;;;;;;5043412;28;20025;-57
2023/04/07 11:56:11;;;;;;;211.57;24.58;;;14.00;77.30;;;;;;5057235;28;20030;-57
2023/04/07 11:58:37;;;;;;;209.65;25.60;;;14.00;77.30;;;;;;5041288;28;20040;-57
2023/04/07 12:01:05;;;;;;;202.95;23.67;;;14.00;77.40;;;;;;5039754;28;20037;-57
2023/04/07 12:03:32;;;;;;;256.67;27.23;;;14.00;77.50;;;;;;5042034;28;20291;-57
2023/04/07 12:05:59;;;;;;;169.27;22.33;;;14.00;77.90;;;;;;5041067;28;20053;-57
2023/04/07 12:08:38;;;;;;;322.10;36.60;;;13.90;77.60;;;;;;5042940;28;20029;-57
2023/04/07 12:11:04;;;;;;;188.55;24.15;;;13.90;78.00;;;;;;5039663;28;20462;-57
2023/04/07 12:13:30;;;;;;;211.30;22.73;;;14.00;77.70;;;;;;5050604;28;20018;-57
2023/04/07 12:15:57;;;;;;;204.82;26.23;;;13.90;77.70;;;;;;5037545;28;20069;-57
2023/04/07 12:18:24;;;;;;;161.70;24.20;;;13.90;77.80;;;;;;5042302;28;20017;-57
2023/04/07 12:20:49;;;;;;;194.95;22.95;;;13.90;78.10;;;;;;5048558;28;20045;-57
2023/04/07 12:23:15;;;;;;;235.32;25.45;;;13.90;78.00;;;;;;5039094;28;20044;-57
2023/04/07 12:25:41;;;;;;;188.63;24.30;;;13.90;78.20;;;;;;5064436;28;20378;-57
2023/04/07 12:28:06;;;;;;;212.68;26.08;;;13.90;78.00;;;;;;5034113;28;20135;-57
2023/04/07 12:30:32;;;;;;;214.02;25.90;;;13.90;78.20;;;;;;5075406;28;20038;-57
2023/04/07 12:32:57;;;;;;;209.82;26.65;;;13.90;78.20;;;;;;5075537;28;20136;-57